createdAt,value
2018-10-19T00:01:15.163Z,60.40
2018-10-19T00:03:44.659Z,60.40
2018-10-19T00:06:14.192Z,60.40
2018-10-19T00:08:43.814Z,60.40
2018-10-19T00:11:13.359Z,61.20
2018-10-19T00:13:42.928Z,60.30
2018-10-19T00:16:12.487Z,60.40
2018-10-19T00:18:42.006Z,60.30
2018-10-19T00:21:11.558Z,60.40
2018-10-19T00:23:41.069Z,60.30
2018-10-19T00:26:10.542Z,60.40
2018-10-19T00:28:40.076Z,60.40
2018-10-19T00:31:09.598Z,60.40
2018-10-19T00:33:39.121Z,60.40
2018-10-19T00:36:08.624Z,60.40
2018-10-19T00:38:38.182Z,60.30
2018-10-19T00:41:07.757Z,60.30
2018-10-19T00:43:37.230Z,60.30
2018-10-19T00:46:06.828Z,60.40
2018-10-19T00:48:36.353Z,60.40
2018-10-19T00:51:06.071Z,60.40
2018-10-19T00:53:35.481Z,61.10
2018-10-19T00:56:05.032Z,60.40
2018-10-19T00:58:34.533Z,60.40
2018-10-19T01:01:04.064Z,61.10
2018-10-19T01:03:33.618Z,60.40
2018-10-19T01:06:03.127Z,60.40
2018-10-19T01:08:32.665Z,60.40
2018-10-19T01:11:02.208Z,60.30
2018-10-19T01:13:31.759Z,61.00
2018-10-19T01:16:01.280Z,60.30
2018-10-19T01:18:30.750Z,60.30
2018-10-19T01:21:00.292Z,60.30
2018-10-19T01:23:29.783Z,60.40
2018-10-19T01:25:59.249Z,60.30
2018-10-19T01:28:28.744Z,60.30
2018-10-19T01:30:58.273Z,60.30
2018-10-19T01:33:27.822Z,60.20
2018-10-19T01:35:57.387Z,60.20
2018-10-19T01:38:26.988Z,60.20
2018-10-19T01:40:56.548Z,60.20
2018-10-19T01:43:26.062Z,60.20
2018-10-19T01:45:58.464Z,60.30
2018-10-19T01:48:28.588Z,60.20
2018-10-19T01:50:58.749Z,60.20
2018-10-19T01:53:28.500Z,60.20
2018-10-19T01:55:57.998Z,60.20
2018-10-19T01:58:27.507Z,60.30
2018-10-19T02:00:57.010Z,60.30
2018-10-19T02:03:26.497Z,60.30
2018-10-19T02:05:56.019Z,60.20
2018-10-19T02:08:25.555Z,60.20
2018-10-19T02:10:55.166Z,60.20
2018-10-19T02:13:24.709Z,60.20
2018-10-19T02:15:54.197Z,60.20
2018-10-19T02:18:23.717Z,60.20
2018-10-19T02:20:53.233Z,60.20
2018-10-19T02:23:25.726Z,60.50
2018-10-19T02:25:55.287Z,60.20
2018-10-19T02:28:24.908Z,60.20
2018-10-19T02:30:54.424Z,60.10
2018-10-19T02:33:23.916Z,60.10
2018-10-19T02:35:53.408Z,60.20
2018-10-19T02:38:22.906Z,60.10
2018-10-19T02:40:52.440Z,60.10
2018-10-19T02:43:21.959Z,60.10
2018-10-19T02:45:51.501Z,60.10
2018-10-19T02:48:21.036Z,60.20
2018-10-19T02:50:50.536Z,60.10
2018-10-19T02:53:20.097Z,60.10
2018-10-19T02:55:49.579Z,60.00
2018-10-19T02:58:19.086Z,60.20
2018-10-19T03:00:48.600Z,60.10
2018-10-19T03:03:18.153Z,60.00
2018-10-19T03:05:47.688Z,60.00
2018-10-19T03:08:17.181Z,60.00
2018-10-19T03:10:46.669Z,60.00
2018-10-19T03:13:16.157Z,60.00
2018-10-19T03:15:45.661Z,60.00
2018-10-19T03:18:15.174Z,60.00
2018-10-19T03:20:44.695Z,60.00
2018-10-19T03:23:14.238Z,60.00
2018-10-19T03:25:43.731Z,60.00
2018-10-19T03:28:13.218Z,60.00
2018-10-19T03:30:42.706Z,59.70
2018-10-19T03:33:12.320Z,60.00
2018-10-19T03:35:41.936Z,59.90
2018-10-19T03:38:11.443Z,59.90
2018-10-19T03:40:41.010Z,59.90
2018-10-19T03:43:10.502Z,59.90
2018-10-19T03:45:40.001Z,59.90
2018-10-19T03:48:09.507Z,59.90
2018-10-19T03:50:39.210Z,59.90
2018-10-19T03:53:08.800Z,59.90
2018-10-19T03:55:38.225Z,59.90
2018-10-19T03:58:07.761Z,59.90
2018-10-19T04:00:37.273Z,59.90
2018-10-19T04:03:07.164Z,59.90
2018-10-19T04:05:36.670Z,59.90
2018-10-19T04:08:06.244Z,59.80
2018-10-19T04:10:35.742Z,59.80
2018-10-19T04:13:05.303Z,59.80
2018-10-19T04:15:34.819Z,60.10
2018-10-19T04:18:04.365Z,59.80
2018-10-19T04:20:33.909Z,59.80
2018-10-19T04:23:07.891Z,59.80
2018-10-19T04:25:38.425Z,59.80
2018-10-19T04:28:08.021Z,59.80
2018-10-19T04:30:38.346Z,59.80
2018-10-19T04:33:07.991Z,59.80
2018-10-19T04:35:37.445Z,59.80
2018-10-19T04:38:06.980Z,59.80
2018-10-19T04:40:36.460Z,59.80
2018-10-19T04:43:06.496Z,59.80
2018-10-19T04:45:35.989Z,59.70
2018-10-19T04:48:05.909Z,59.70
2018-10-19T04:50:35.454Z,59.70
2018-10-19T04:53:05.109Z,59.70
2018-10-19T04:55:34.520Z,59.70
2018-10-19T04:58:04.005Z,59.70
2018-10-19T05:00:33.478Z,60.30
2018-10-19T05:03:03.136Z,59.70
2018-10-19T05:05:32.696Z,59.70
2018-10-19T05:08:02.271Z,59.70
2018-10-19T05:10:31.774Z,59.70
2018-10-19T05:13:01.364Z,59.70
2018-10-19T05:15:30.935Z,59.70
2018-10-19T05:18:00.414Z,59.70
2018-10-19T05:20:30.705Z,59.70
2018-10-19T05:23:00.276Z,59.70
2018-10-19T05:25:29.821Z,59.70
2018-10-19T05:27:59.343Z,59.70
2018-10-19T05:30:28.847Z,59.70
2018-10-19T05:32:58.396Z,59.70
2018-10-19T05:35:27.909Z,59.70
2018-10-19T05:37:57.450Z,59.60
2018-10-19T05:40:26.936Z,60.30
2018-10-19T05:42:56.468Z,59.70
2018-10-19T05:45:25.965Z,59.70
2018-10-19T05:47:55.512Z,59.70
2018-10-19T05:50:25.047Z,59.70
2018-10-19T05:52:54.608Z,60.30
2018-10-19T05:55:24.122Z,59.70
2018-10-19T05:57:53.643Z,59.60
2018-10-19T06:00:23.194Z,59.60
2018-10-19T06:02:52.699Z,59.70
2018-10-19T06:05:22.206Z,59.70
2018-10-19T06:07:51.699Z,59.70
2018-10-19T06:10:21.319Z,59.60
2018-10-19T06:12:50.794Z,59.60
2018-10-19T06:15:20.291Z,59.60
2018-10-19T06:17:49.800Z,59.60
2018-10-19T06:20:19.322Z,59.60
2018-10-19T06:22:48.810Z,59.60
2018-10-19T06:25:18.297Z,59.60
2018-10-19T06:27:47.831Z,59.60
2018-10-19T06:30:17.320Z,59.60
2018-10-19T06:32:46.817Z,59.60
2018-10-19T06:35:16.408Z,59.60
2018-10-19T06:37:45.912Z,59.60
2018-10-19T06:40:15.455Z,59.60
2018-10-19T06:42:44.964Z,59.60
2018-10-19T06:45:14.506Z,59.60
2018-10-19T06:47:44.048Z,59.70
2018-10-19T06:50:13.624Z,59.70
2018-10-19T06:52:43.199Z,59.70
2018-10-19T06:55:16.244Z,59.70
2018-10-19T06:57:45.807Z,59.70
2018-10-19T07:00:16.219Z,59.70
2018-10-19T07:02:45.764Z,59.70
2018-10-19T07:05:15.381Z,59.70
2018-10-19T07:07:44.880Z,59.70
2018-10-19T07:10:14.454Z,59.80
2018-10-19T07:12:44.086Z,59.90
2018-10-19T07:15:13.723Z,59.70
2018-10-19T07:17:43.278Z,59.80
2018-10-19T07:20:12.837Z,59.80
2018-10-19T07:22:42.378Z,59.80
2018-10-19T07:25:11.900Z,59.90
2018-10-19T07:27:41.425Z,59.80
2018-10-19T07:30:10.948Z,59.80
2018-10-19T07:32:40.491Z,59.80
2018-10-19T07:35:10.197Z,59.80
2018-10-19T07:37:39.641Z,59.80
2018-10-19T07:40:09.186Z,59.80
2018-10-19T07:42:38.687Z,59.90
2018-10-19T07:45:08.432Z,59.90
2018-10-19T07:47:38.029Z,59.90
2018-10-19T07:50:08.466Z,59.90
2018-10-19T07:52:38.753Z,59.90
2018-10-19T07:55:09.513Z,59.90
2018-10-19T07:57:39.146Z,59.90
2018-10-19T08:00:10.114Z,59.90
2018-10-19T08:02:39.656Z,59.90
2018-10-19T08:05:09.851Z,59.80
2018-10-19T08:07:39.356Z,59.90
2018-10-19T08:10:10.013Z,59.90
2018-10-19T08:12:39.538Z,59.80
2018-10-19T08:15:09.811Z,59.80
2018-10-19T08:17:39.599Z,59.80
2018-10-19T08:20:10.195Z,59.70
2018-10-19T08:22:40.061Z,59.70
2018-10-19T08:25:09.622Z,59.80
2018-10-19T08:27:39.167Z,59.70
2018-10-19T08:30:08.727Z,59.70
2018-10-19T08:32:38.279Z,59.60
2018-10-19T08:35:11.748Z,59.60
2018-10-19T08:37:43.881Z,59.50
2018-10-19T08:40:14.926Z,60.20
2018-10-19T08:42:45.697Z,59.50
2018-10-19T08:45:16.847Z,59.50
2018-10-19T08:47:48.087Z,59.50
2018-10-19T08:50:20.605Z,59.60
2018-10-19T08:52:51.981Z,59.50
2018-10-19T08:55:23.005Z,59.50
2018-10-19T08:57:56.141Z,59.50
2018-10-19T09:00:27.103Z,59.60
2018-10-19T09:02:59.552Z,59.60
2018-10-19T09:05:30.393Z,59.60
2018-10-19T09:08:01.408Z,59.60
2018-10-19T09:10:39.006Z,59.70
2018-10-19T09:13:09.221Z,59.70
2018-10-19T09:15:39.687Z,59.70
2018-10-19T09:18:09.872Z,59.70
2018-10-19T09:20:41.255Z,59.80
2018-10-19T09:23:11.638Z,59.80
2018-10-19T09:25:42.607Z,59.80
2018-10-19T09:28:13.104Z,59.90
2018-10-19T09:30:43.393Z,59.90
2018-10-19T09:33:13.868Z,59.90
2018-10-19T09:35:44.082Z,59.90
2018-10-19T09:38:14.326Z,60.00
2018-10-19T09:40:44.359Z,60.00
2018-10-19T09:43:14.650Z,60.10
2018-10-19T09:45:45.000Z,60.20
2018-10-19T09:48:15.398Z,60.20
2018-10-19T09:50:45.569Z,60.20
2018-10-19T09:53:15.804Z,60.30
2018-10-19T09:55:45.911Z,60.30
2018-10-19T09:58:16.055Z,60.30
2018-10-19T10:00:51.137Z,60.40
2018-10-19T10:03:21.522Z,60.50
2018-10-19T10:05:51.669Z,60.50
2018-10-19T10:08:22.138Z,60.50
2018-10-19T10:10:52.380Z,60.60
2018-10-19T10:13:22.946Z,60.60
2018-10-19T10:15:53.429Z,60.80
2018-10-19T10:18:23.715Z,60.80
2018-10-19T10:20:54.021Z,60.80
2018-10-19T10:23:24.436Z,60.80
2018-10-19T10:25:54.526Z,60.90
2018-10-19T10:28:24.727Z,60.90
2018-10-19T10:30:59.515Z,60.90
2018-10-19T10:33:29.776Z,61.00
2018-10-19T10:36:00.212Z,61.00
2018-10-19T10:38:30.500Z,61.10
2018-10-19T10:41:01.261Z,61.10
2018-10-19T10:43:31.336Z,61.10
2018-10-19T10:46:01.689Z,61.10
2018-10-19T10:48:31.848Z,61.20
2018-10-19T10:51:01.941Z,61.90
2018-10-19T10:53:32.507Z,61.10
2018-10-19T10:56:02.813Z,61.10
2018-10-19T10:58:33.077Z,61.20
2018-10-19T11:01:03.159Z,61.10
2018-10-19T11:03:33.958Z,61.20
2018-10-19T11:06:04.259Z,61.20
2018-10-19T11:08:34.468Z,61.10
2018-10-19T11:11:10.869Z,61.20
2018-10-19T11:13:42.041Z,61.10
2018-10-19T11:16:13.274Z,61.00
2018-10-19T11:18:43.443Z,61.10
2018-10-19T11:21:13.707Z,61.00
2018-10-19T11:23:43.720Z,61.00
2018-10-19T11:26:14.189Z,61.10
2018-10-19T11:28:46.301Z,61.10
2018-10-19T11:31:16.003Z,61.00
2018-10-19T11:33:47.690Z,61.90
2018-10-19T11:36:17.506Z,61.30
2018-10-19T11:38:53.522Z,61.30
2018-10-19T11:41:30.395Z,61.40
2018-10-19T11:44:10.591Z,62.20
2018-10-19T11:46:50.289Z,61.50
2018-10-19T11:49:33.449Z,61.50
2018-10-19T11:52:12.854Z,61.60
2018-10-19T11:54:54.022Z,61.50
2018-10-19T11:57:34.723Z,61.40
2018-10-19T12:00:14.337Z,61.50
2018-10-19T12:02:55.029Z,61.50
2018-10-19T12:05:34.306Z,61.50
2018-10-19T12:08:15.599Z,61.40
2018-10-19T12:10:56.147Z,61.40
2018-10-19T12:13:35.895Z,61.30
2018-10-19T12:16:18.956Z,61.20
2018-10-19T12:19:00.908Z,61.00
2018-10-19T12:21:39.752Z,61.00
2018-10-19T12:24:20.095Z,60.80
2018-10-19T12:26:58.643Z,60.70
2018-10-19T12:29:42.146Z,60.70
2018-10-19T12:32:20.741Z,60.50
2018-10-19T12:34:59.764Z,60.40
2018-10-19T12:37:38.000Z,60.20
2018-10-19T12:40:17.596Z,60.00
2018-10-19T12:42:56.108Z,59.90
2018-10-19T12:46:47.851Z,59.70
2018-10-19T12:49:28.130Z,59.50
2018-10-19T12:52:06.668Z,59.40
2018-10-19T12:54:46.456Z,59.10
2018-10-19T12:57:25.529Z,58.90
2018-10-19T13:00:05.572Z,58.70
2018-10-19T13:02:43.877Z,58.50
2018-10-19T13:05:22.165Z,58.30
2018-10-19T13:08:00.561Z,58.10
2018-10-19T13:10:40.545Z,58.00
2018-10-19T13:13:24.106Z,57.90
2018-10-19T13:16:04.240Z,57.70
2018-10-19T13:18:42.753Z,57.50
2018-10-19T13:21:22.677Z,57.40
2018-10-19T13:24:01.174Z,57.10
2018-10-19T13:26:38.857Z,56.90
2018-10-19T13:29:18.891Z,56.70
2018-10-19T13:31:57.637Z,56.60
2018-10-19T13:34:36.603Z,56.50
2018-10-19T13:37:14.681Z,56.40
2018-10-19T13:39:54.383Z,56.30
2018-10-19T13:42:34.802Z,56.30
2018-10-19T13:45:13.273Z,56.20
2018-10-19T13:47:55.964Z,56.10
2018-10-19T13:50:39.563Z,56.10
2018-10-19T13:53:18.666Z,56.10
2018-10-19T13:55:57.457Z,56.00
2018-10-19T13:58:36.952Z,56.00
2018-10-19T14:01:16.602Z,55.90
2018-10-19T14:03:57.751Z,55.80
2018-10-19T14:06:40.208Z,55.80
2018-10-19T14:09:22.390Z,55.70
2018-10-19T14:12:00.636Z,55.60
2018-10-19T14:14:39.038Z,55.60
2018-10-19T14:17:18.550Z,55.60
2018-10-19T14:19:57.310Z,55.50
2018-10-19T14:22:36.969Z,55.40
2018-10-19T14:25:17.269Z,55.30
2018-10-19T14:27:57.224Z,55.30
2018-10-19T14:30:36.539Z,55.30
2018-10-19T14:33:17.687Z,55.20
2018-10-19T14:35:58.625Z,55.20
2018-10-19T14:38:39.208Z,55.30
2018-10-19T14:41:18.140Z,55.90
2018-10-19T14:43:57.845Z,55.20
2018-10-19T14:46:36.211Z,55.30
2018-10-19T14:49:14.433Z,55.20
2018-10-19T14:51:56.517Z,55.20
2018-10-19T14:54:38.920Z,55.10
2018-10-19T14:57:19.228Z,55.20
2018-10-19T14:59:57.652Z,55.20
2018-10-19T15:02:27.957Z,55.20
2018-10-19T15:04:57.628Z,55.20
2018-10-19T15:07:27.304Z,55.30
2018-10-19T15:09:57.097Z,55.30
2018-10-19T15:12:26.603Z,55.30
2018-10-19T15:14:56.283Z,55.30
2018-10-19T15:17:26.186Z,55.30
2018-10-19T15:19:55.886Z,55.30
2018-10-19T15:22:25.509Z,55.30
2018-10-19T15:24:55.123Z,55.30
2018-10-19T15:27:24.743Z,55.30
2018-10-19T15:29:54.383Z,55.30
2018-10-19T15:32:24.145Z,55.30
2018-10-19T15:34:53.910Z,55.30
2018-10-19T15:37:23.583Z,55.30
2018-10-19T15:39:53.243Z,55.20
2018-10-19T15:42:22.864Z,55.30
2018-10-19T15:44:52.628Z,55.20
2018-10-19T15:47:25.633Z,55.20
2018-10-19T15:49:57.026Z,55.20
2018-10-19T15:52:26.895Z,55.20
2018-10-19T15:54:56.501Z,55.10
2018-10-19T15:57:26.299Z,55.20
2018-10-19T15:59:55.969Z,55.20
2018-10-19T16:02:25.736Z,55.20
2018-10-19T16:04:55.465Z,55.20
2018-10-19T16:07:25.148Z,55.20
2018-10-19T16:09:54.784Z,55.20
2018-10-19T16:12:24.447Z,55.20
2018-10-19T16:14:54.138Z,55.20
2018-10-19T16:17:23.867Z,55.20
2018-10-19T16:19:53.559Z,55.20
2018-10-19T16:22:23.220Z,55.20
2018-10-19T16:24:52.870Z,55.20
2018-10-19T16:27:22.598Z,55.20
2018-10-19T16:29:52.215Z,55.20
2018-10-19T16:32:21.886Z,55.80
2018-10-19T16:34:51.660Z,55.10
2018-10-19T16:37:21.297Z,55.10
2018-10-19T16:39:51.255Z,55.10
2018-10-19T16:42:20.890Z,55.10
2018-10-19T16:44:50.534Z,55.10
2018-10-19T16:47:20.260Z,55.10
2018-10-19T16:49:49.907Z,55.00
2018-10-19T16:52:19.644Z,55.10
2018-10-19T16:54:49.345Z,55.10
2018-10-19T16:57:18.981Z,55.10
2018-10-19T16:59:48.610Z,55.10
2018-10-19T17:02:18.273Z,55.10
2018-10-19T17:04:49.939Z,55.10
2018-10-19T17:07:19.641Z,55.10
2018-10-19T17:09:50.648Z,55.10
2018-10-19T17:12:20.336Z,55.10
2018-10-19T17:14:50.077Z,55.00
2018-10-19T17:17:19.716Z,55.10
2018-10-19T17:19:49.389Z,55.10
2018-10-19T17:22:19.141Z,55.00
2018-10-19T17:24:48.834Z,55.10
2018-10-19T17:27:18.538Z,55.10
2018-10-19T17:29:48.168Z,55.00
2018-10-19T17:32:17.880Z,55.00
2018-10-19T17:34:47.550Z,55.10
2018-10-19T17:37:17.251Z,55.00
2018-10-19T17:39:46.970Z,55.00
2018-10-19T17:42:16.695Z,55.10
2018-10-19T17:44:46.482Z,55.10
2018-10-19T17:47:16.421Z,55.10
2018-10-19T17:49:46.151Z,55.10
2018-10-19T17:52:15.979Z,55.20
2018-10-19T17:54:45.710Z,55.30
2018-10-19T17:57:15.525Z,55.20
2018-10-19T17:59:45.216Z,55.30
2018-10-19T18:02:14.924Z,55.40
2018-10-19T18:04:44.586Z,55.40
2018-10-19T18:07:14.323Z,55.40
2018-10-19T18:09:44.056Z,55.50
2018-10-19T18:12:13.742Z,55.50
2018-10-19T18:14:43.659Z,55.50
2018-10-19T18:17:13.557Z,55.60
2018-10-19T18:19:43.432Z,55.60
2018-10-19T18:22:13.444Z,55.60
2018-10-19T18:24:42.930Z,55.70
2018-10-19T18:27:12.830Z,55.80
2018-10-19T18:29:42.510Z,55.80
2018-10-19T18:32:12.466Z,55.90
2018-10-19T18:34:42.471Z,55.90
2018-10-19T18:37:12.474Z,56.00
2018-10-19T18:39:42.243Z,56.10
2018-10-19T18:42:12.021Z,56.10
2018-10-19T18:44:41.948Z,56.10
2018-10-19T18:47:11.827Z,56.20
2018-10-19T18:49:41.611Z,56.20
2018-10-19T18:52:11.563Z,56.30
2018-10-19T18:54:41.866Z,56.30
2018-10-19T18:57:12.220Z,56.30
2018-10-19T18:59:42.440Z,56.40
2018-10-19T19:02:12.781Z,56.40
2018-10-19T19:04:43.090Z,56.50
2018-10-19T19:07:13.410Z,56.40
2018-10-19T19:09:48.016Z,56.50
2018-10-19T19:12:18.226Z,56.50
2018-10-19T19:14:48.597Z,56.50
2018-10-19T19:17:28.286Z,56.60
2018-10-19T19:20:32.143Z,56.60
2018-10-19T19:23:02.606Z,56.70
2018-10-19T19:25:37.616Z,56.60
2018-10-19T19:28:08.002Z,56.70
2018-10-19T19:30:38.026Z,56.80
2018-10-19T19:33:12.907Z,56.80
2018-10-19T19:35:42.619Z,56.90
2018-10-19T19:38:12.725Z,56.80
2018-10-19T19:40:47.753Z,56.90
2018-10-19T19:43:17.438Z,56.90
2018-10-19T19:45:47.107Z,57.00
2018-10-19T19:48:21.961Z,57.00
2018-10-19T19:50:51.857Z,57.00
2018-10-19T19:53:21.611Z,56.90
2018-10-19T19:55:51.414Z,57.00
2018-10-19T19:58:21.098Z,57.00
2018-10-19T20:00:50.817Z,57.10
2018-10-19T20:03:20.504Z,57.10
2018-10-19T20:05:50.196Z,57.10
2018-10-19T20:08:19.847Z,57.10
2018-10-19T20:10:49.529Z,57.10
2018-10-19T20:13:19.158Z,57.10
2018-10-19T20:15:48.807Z,57.20
2018-10-19T20:18:18.544Z,57.20
2018-10-19T20:20:48.154Z,57.10
2018-10-19T20:23:17.835Z,57.10
2018-10-19T20:25:47.550Z,57.10
2018-10-19T20:28:17.205Z,57.20
2018-10-19T20:30:46.943Z,57.20
2018-10-19T20:33:16.682Z,57.20
2018-10-19T20:35:46.376Z,57.20
2018-10-19T20:38:16.127Z,57.20
2018-10-19T20:40:45.822Z,57.20
2018-10-19T20:43:15.455Z,57.30
2018-10-19T20:45:45.170Z,57.40
2018-10-19T20:48:14.876Z,57.30
2018-10-19T20:50:44.493Z,57.30
2018-10-19T20:53:14.194Z,57.30
2018-10-19T20:55:43.869Z,57.30
2018-10-19T20:58:13.526Z,57.30
2018-10-19T21:00:43.287Z,57.40
2018-10-19T21:03:13.865Z,57.40
2018-10-19T21:05:43.487Z,57.50
2018-10-19T21:08:13.120Z,57.40
2018-10-19T21:10:42.948Z,57.50
2018-10-19T21:13:12.610Z,57.50
2018-10-19T21:15:42.261Z,57.50
2018-10-19T21:18:11.896Z,57.60
2018-10-19T21:20:41.541Z,57.60
2018-10-19T21:23:11.135Z,57.50
2018-10-19T21:25:40.735Z,57.50
2018-10-19T21:28:10.348Z,57.60
2018-10-19T21:30:39.946Z,57.60
2018-10-19T21:33:09.539Z,57.60
2018-10-19T21:35:39.214Z,57.60
2018-10-19T21:38:08.908Z,57.60
2018-10-19T21:40:38.499Z,57.60
2018-10-19T21:43:08.095Z,57.60
2018-10-19T21:45:37.709Z,57.60
2018-10-19T21:48:07.372Z,57.60
2018-10-19T21:50:36.947Z,57.70
2018-10-19T21:53:06.697Z,57.60
2018-10-19T21:55:36.276Z,57.60
2018-10-19T21:58:06.112Z,57.70
2018-10-19T22:00:35.853Z,57.70
2018-10-19T22:03:05.450Z,57.70
2018-10-19T22:05:35.103Z,57.70
2018-10-19T22:08:04.738Z,57.70
2018-10-19T22:10:34.363Z,57.70
2018-10-19T22:13:04.033Z,57.60
2018-10-19T22:15:33.654Z,57.70
2018-10-19T22:18:03.271Z,57.80
2018-10-19T22:20:32.881Z,57.70
2018-10-19T22:23:02.550Z,57.70
2018-10-19T22:25:32.104Z,57.70
2018-10-19T22:28:01.731Z,57.70
2018-10-19T22:30:31.324Z,58.30
2018-10-19T22:33:00.920Z,57.70
2018-10-19T22:35:30.538Z,57.70
2018-10-19T22:38:00.205Z,57.80
2018-10-19T22:40:29.801Z,57.80
2018-10-19T22:42:59.448Z,58.10
2018-10-19T22:45:29.084Z,57.70
2018-10-19T22:47:58.718Z,57.70
2018-10-19T22:50:28.283Z,57.80
2018-10-19T22:52:57.905Z,57.80
2018-10-19T22:55:27.531Z,57.80
2018-10-19T22:57:57.209Z,57.80
2018-10-19T23:00:26.811Z,57.80
2018-10-19T23:02:56.427Z,57.80
2018-10-19T23:05:26.175Z,57.80
2018-10-19T23:07:55.852Z,57.80
2018-10-19T23:10:25.478Z,57.80
2018-10-19T23:12:55.153Z,57.80
2018-10-19T23:15:24.742Z,57.80
2018-10-19T23:17:54.371Z,57.80
2018-10-19T23:20:23.974Z,57.80
2018-10-19T23:22:53.683Z,57.80
2018-10-19T23:25:23.313Z,57.80
2018-10-19T23:27:52.888Z,57.80
2018-10-19T23:30:22.575Z,57.80
2018-10-19T23:32:52.231Z,57.80
2018-10-19T23:35:21.887Z,57.80
2018-10-19T23:37:51.473Z,57.80
2018-10-19T23:40:21.102Z,57.80
2018-10-19T23:42:50.739Z,57.80
2018-10-19T23:45:20.356Z,57.80
2018-10-19T23:47:49.918Z,57.70
2018-10-19T23:50:19.565Z,57.80
2018-10-19T23:52:49.198Z,57.80
2018-10-19T23:55:18.802Z,57.80
2018-10-19T23:57:48.391Z,57.80
